createdAt,value
2018-05-13T00:00:24.178Z,18.87
2018-05-13T00:01:24.189Z,18.90
2018-05-13T00:02:24.218Z,18.80
2018-05-13T00:03:24.241Z,18.88
2018-05-13T00:04:24.247Z,18.80
2018-05-13T00:05:24.266Z,18.87
2018-05-13T00:06:24.283Z,18.80
2018-05-13T00:07:24.299Z,18.84
2018-05-13T00:08:24.319Z,18.76
2018-05-13T00:09:24.345Z,18.81
2018-05-13T00:10:24.354Z,18.80
2018-05-13T00:11:24.423Z,18.78
2018-05-13T00:12:24.399Z,18.75
2018-05-13T00:13:24.416Z,18.81
2018-05-13T00:14:24.429Z,18.75
2018-05-13T00:15:24.447Z,18.73
2018-05-13T00:16:24.466Z,18.75
2018-05-13T00:17:24.481Z,18.76
2018-05-13T00:18:24.498Z,18.67
2018-05-13T00:19:24.525Z,18.73
2018-05-13T00:20:24.534Z,18.70
2018-05-13T00:21:24.550Z,18.76
2018-05-13T00:22:24.568Z,18.73
2018-05-13T00:23:24.587Z,18.73
2018-05-13T00:24:24.609Z,18.72
2018-05-13T00:25:24.626Z,18.69
2018-05-13T00:26:24.641Z,18.78
2018-05-13T00:27:24.657Z,18.73
2018-05-13T00:28:24.679Z,18.65
2018-05-13T00:29:24.706Z,18.66
2018-05-13T00:30:24.722Z,18.63
2018-05-13T00:31:24.730Z,18.62
2018-05-13T00:32:24.755Z,18.57
2018-05-13T00:33:24.767Z,18.63
2018-05-13T00:34:24.785Z,18.54
2018-05-13T00:35:25.110Z,18.54
2018-05-13T00:36:24.830Z,18.47
2018-05-13T00:37:24.849Z,18.52
2018-05-13T00:38:24.854Z,18.52
2018-05-13T00:39:24.871Z,18.51
2018-05-13T00:40:24.898Z,18.48
2018-05-13T00:41:24.909Z,18.50
2018-05-13T00:42:24.928Z,18.50
2018-05-13T00:43:24.946Z,18.52
2018-05-13T00:44:24.971Z,18.55
2018-05-13T00:45:24.984Z,18.51
2018-05-13T00:46:24.998Z,18.48
2018-05-13T00:47:25.194Z,18.42
2018-05-13T00:48:25.041Z,18.45
2018-05-13T00:49:25.266Z,18.47
2018-05-13T00:50:25.276Z,18.44
2018-05-13T00:52:25.107Z,18.47
2018-05-13T00:53:25.125Z,18.48
2018-05-13T00:54:25.144Z,18.50
2018-05-13T00:55:25.160Z,18.50
2018-05-13T00:56:25.179Z,18.50
2018-05-13T00:57:25.197Z,18.39
2018-05-13T00:58:25.212Z,18.48
2018-05-13T00:59:25.239Z,18.51
2018-05-13T01:00:25.253Z,18.41
2018-05-13T01:01:25.271Z,18.45
2018-05-13T01:02:25.286Z,18.45
2018-05-13T01:03:25.299Z,18.48
2018-05-13T01:04:25.322Z,18.45
2018-05-13T01:05:25.334Z,18.37
2018-05-13T01:06:25.511Z,18.25
2018-05-13T01:07:25.409Z,18.26
2018-05-13T01:08:25.394Z,18.33
2018-05-13T01:09:25.413Z,18.27
2018-05-13T01:10:25.421Z,18.32
2018-05-13T01:11:25.441Z,18.37
2018-05-13T01:12:25.463Z,18.35
2018-05-13T01:13:25.479Z,18.35
2018-05-13T01:14:25.502Z,18.23
2018-05-13T01:15:25.513Z,18.32
2018-05-13T01:16:25.531Z,18.35
2018-05-13T01:17:25.551Z,18.27
2018-05-13T01:18:25.616Z,18.26
2018-05-13T01:19:25.587Z,18.30
2018-05-13T01:20:25.604Z,18.23
2018-05-13T01:21:25.625Z,18.26
2018-05-13T01:22:25.643Z,18.27
2018-05-13T01:23:25.656Z,18.26
2018-05-13T01:24:25.675Z,18.27
2018-05-13T01:25:25.740Z,18.30
2018-05-13T01:26:25.711Z,18.35
2018-05-13T01:27:25.729Z,18.35
2018-05-13T01:28:25.746Z,18.32
2018-05-13T01:29:25.763Z,18.29
2018-05-13T01:30:25.780Z,18.32
2018-05-13T01:31:25.803Z,18.30
2018-05-13T01:32:25.893Z,18.30
2018-05-13T01:33:25.846Z,18.30
2018-05-13T01:34:25.855Z,18.21
2018-05-13T01:35:25.923Z,18.18
2018-05-13T01:36:25.888Z,18.27
2018-05-13T01:37:25.906Z,18.23
2018-05-13T01:38:25.923Z,18.25
2018-05-13T01:39:25.959Z,18.21
2018-05-13T01:40:26.004Z,18.18
2018-05-13T01:41:25.976Z,18.07
2018-05-13T01:42:25.993Z,18.20
2018-05-13T01:43:26.009Z,18.12
2018-05-13T01:44:26.025Z,18.15
2018-05-13T01:45:26.040Z,18.15
2018-05-13T01:46:26.060Z,18.10
2018-05-13T01:47:26.075Z,18.12
2018-05-13T01:48:26.093Z,18.18
2018-05-13T01:49:26.111Z,18.11
2018-05-13T01:50:26.128Z,18.15
2018-05-13T01:51:26.246Z,18.11
2018-05-13T01:52:26.170Z,18.12
2018-05-13T01:53:26.182Z,18.17
2018-05-13T01:54:26.200Z,18.11
2018-05-13T01:55:26.223Z,18.17
2018-05-13T01:56:26.235Z,18.11
2018-05-13T01:57:26.258Z,18.18
2018-05-13T01:58:26.270Z,18.03
2018-05-13T01:59:26.289Z,18.08
2018-05-13T02:00:26.305Z,18.02
2018-05-13T02:01:26.324Z,18.08
2018-05-13T02:02:26.342Z,17.96
2018-05-13T02:03:26.362Z,17.93
2018-05-13T02:04:26.376Z,17.92
2018-05-13T02:05:26.394Z,17.95
2018-05-13T02:06:26.411Z,17.96
2018-05-13T02:07:26.433Z,18.03
2018-05-13T02:08:26.448Z,18.05
2018-05-13T02:09:26.463Z,17.97
2018-05-13T02:10:26.482Z,17.96
2018-05-13T02:11:26.559Z,17.97
2018-05-13T02:12:26.529Z,17.92
2018-05-13T02:13:26.534Z,17.99
2018-05-13T02:14:26.635Z,17.92
2018-05-13T02:15:26.569Z,17.96
2018-05-13T02:16:26.585Z,17.95
2018-05-13T02:17:26.607Z,17.95
2018-05-13T02:18:26.623Z,17.95
2018-05-13T02:19:26.642Z,17.96
2018-05-13T02:20:26.661Z,17.95
2018-05-13T02:21:26.675Z,17.87
2018-05-13T02:22:26.693Z,17.89
2018-05-13T02:23:26.710Z,17.90
2018-05-13T02:24:26.747Z,17.79
2018-05-13T02:25:26.751Z,17.86
2018-05-13T02:26:26.763Z,17.82
2018-05-13T02:27:26.784Z,17.87
2018-05-13T02:28:26.799Z,17.90
2018-05-13T02:29:26.814Z,17.92
2018-05-13T02:30:26.836Z,17.96
2018-05-13T02:31:26.851Z,17.89
2018-05-13T02:32:26.872Z,17.84
2018-05-13T02:33:26.890Z,17.86
2018-05-13T02:34:26.909Z,17.86
2018-05-13T02:35:26.925Z,17.90
2018-05-13T02:36:26.946Z,17.90
2018-05-13T02:37:26.963Z,17.89
2018-05-13T02:38:26.975Z,17.81
2018-05-13T02:39:26.991Z,17.89
2018-05-13T02:40:27.013Z,17.90
2018-05-13T02:41:27.029Z,17.86
2018-05-13T02:42:27.046Z,17.90
2018-05-13T02:43:27.090Z,17.82
2018-05-13T02:44:27.081Z,17.90
2018-05-13T02:45:27.097Z,17.87
2018-05-13T02:46:27.149Z,17.82
2018-05-13T02:47:27.132Z,17.87
2018-05-13T02:48:27.157Z,17.86
2018-05-13T02:49:27.168Z,17.93
2018-05-13T02:50:27.186Z,17.84
2018-05-13T02:51:27.203Z,17.77
2018-05-13T02:52:27.221Z,17.78
2018-05-13T02:53:27.239Z,17.79
2018-05-13T02:54:27.260Z,17.82
2018-05-13T02:55:27.276Z,17.68
2018-05-13T02:56:27.397Z,17.71
2018-05-13T02:57:27.326Z,17.71
2018-05-13T02:58:27.337Z,17.74
2018-05-13T02:59:27.341Z,17.71
2018-05-13T03:00:27.360Z,17.66
2018-05-13T03:01:27.410Z,17.71
2018-05-13T03:02:27.395Z,17.66
2018-05-13T03:03:27.415Z,17.71
2018-05-13T03:04:27.429Z,17.66
2018-05-13T03:05:27.446Z,17.72
2018-05-13T03:06:27.466Z,17.77
2018-05-13T03:07:27.484Z,17.72
2018-05-13T03:08:27.510Z,17.97
2018-05-13T03:09:27.520Z,17.93
2018-05-13T03:10:27.547Z,17.95
2018-05-13T03:11:27.555Z,17.90
2018-05-13T03:12:27.571Z,18.00
2018-05-13T03:13:27.589Z,17.82
2018-05-13T03:14:27.612Z,17.81
2018-05-13T03:15:27.676Z,17.89
2018-05-13T03:16:27.961Z,17.90
2018-05-13T03:17:27.663Z,17.90
2018-05-13T03:18:27.680Z,17.89
2018-05-13T03:19:27.692Z,17.82
2018-05-13T03:20:27.716Z,17.68
2018-05-13T03:21:27.745Z,17.64
2018-05-13T03:22:27.748Z,17.68
2018-05-13T03:23:27.767Z,17.66
2018-05-13T03:24:27.781Z,17.68
2018-05-13T03:25:27.808Z,17.63
2018-05-13T03:26:27.824Z,17.54
2018-05-13T03:27:27.844Z,17.55
2018-05-13T03:28:27.858Z,17.52
2018-05-13T03:29:27.879Z,17.46
2018-05-13T03:30:27.890Z,17.51
2018-05-13T03:31:27.916Z,17.49
2018-05-13T03:32:27.927Z,17.44
2018-05-13T03:33:27.940Z,17.49
2018-05-13T03:34:27.955Z,17.62
2018-05-13T03:35:27.973Z,17.59
2018-05-13T03:36:27.993Z,17.71
2018-05-13T03:37:28.014Z,17.66
2018-05-13T03:38:28.034Z,17.75
2018-05-13T03:39:28.048Z,17.78
2018-05-13T03:40:28.066Z,17.79
2018-05-13T03:41:28.085Z,17.78
2018-05-13T03:42:28.104Z,17.90
2018-05-13T03:43:28.115Z,17.89
2018-05-13T03:44:28.134Z,17.82
2018-05-13T03:45:28.197Z,17.82
2018-05-13T03:46:28.167Z,17.96
2018-05-13T03:47:28.183Z,17.90
2018-05-13T03:48:28.204Z,17.84
2018-05-13T03:49:28.218Z,17.92
2018-05-13T03:50:28.246Z,17.92
2018-05-13T03:51:28.303Z,17.95
2018-05-13T03:52:28.303Z,17.92
2018-05-13T03:53:28.293Z,17.93
2018-05-13T03:54:28.462Z,17.96
2018-05-13T03:55:28.667Z,17.96
2018-05-13T03:56:28.364Z,17.92
2018-05-13T03:57:28.359Z,17.92
2018-05-13T03:58:28.376Z,17.92
2018-05-13T03:59:28.396Z,17.95
2018-05-13T04:00:28.412Z,17.90
2018-05-13T04:01:28.436Z,17.93
2018-05-13T04:02:28.458Z,17.97
2018-05-13T04:03:28.464Z,17.87
2018-05-13T04:04:28.481Z,17.95
2018-05-13T04:05:28.508Z,17.92
2018-05-13T04:06:28.517Z,17.92
2018-05-13T04:07:28.580Z,17.87
2018-05-13T04:08:28.555Z,17.90
2018-05-13T04:09:28.569Z,17.82
2018-05-13T04:10:28.593Z,17.81
2018-05-13T04:11:28.607Z,17.81
2018-05-13T04:12:28.624Z,17.71
2018-05-13T04:13:28.640Z,17.72
2018-05-13T04:14:28.673Z,17.70
2018-05-13T04:15:28.675Z,17.78
2018-05-13T04:16:28.692Z,17.78
2018-05-13T04:17:28.710Z,17.66
2018-05-13T04:18:28.760Z,17.66
2018-05-13T04:19:28.746Z,17.54
2018-05-13T04:20:28.767Z,17.44
2018-05-13T04:21:28.784Z,17.49
2018-05-13T04:22:28.804Z,17.38
2018-05-13T04:23:28.821Z,17.41
2018-05-13T04:24:28.841Z,17.40
2018-05-13T04:25:28.851Z,17.44
2018-05-13T04:26:28.868Z,17.40
2018-05-13T04:27:28.888Z,17.49
2018-05-13T04:28:28.904Z,17.48
2018-05-13T04:29:28.923Z,17.44
2018-05-13T04:30:28.944Z,17.46
2018-05-13T04:31:28.957Z,17.44
2018-05-13T04:32:28.975Z,17.52
2018-05-13T04:33:28.988Z,17.52
2018-05-13T04:34:29.010Z,17.44
2018-05-13T04:35:29.029Z,17.46
2018-05-13T04:36:29.047Z,17.48
2018-05-13T04:37:29.059Z,17.48
2018-05-13T04:38:29.075Z,17.41
2018-05-13T04:39:29.095Z,17.48
2018-05-13T04:40:29.111Z,17.43
2018-05-13T04:41:29.131Z,17.46
2018-05-13T04:42:29.149Z,17.43
2018-05-13T04:43:29.166Z,17.46
2018-05-13T04:44:29.184Z,17.54
2018-05-13T04:45:29.203Z,17.51
2018-05-13T04:46:29.224Z,17.43
2018-05-13T04:47:29.243Z,17.44
2018-05-13T04:48:29.255Z,17.48
2018-05-13T04:49:29.269Z,17.40
2018-05-13T04:50:29.289Z,17.44
2018-05-13T04:51:29.307Z,17.52
2018-05-13T04:52:29.320Z,17.52
2018-05-13T04:53:29.338Z,17.58
2018-05-13T04:54:29.355Z,17.41
2018-05-13T04:55:29.374Z,17.44
2018-05-13T04:56:29.421Z,17.52
2018-05-13T04:57:29.411Z,17.55
2018-05-13T04:58:29.429Z,17.56
2018-05-13T04:59:29.442Z,17.55
2018-05-13T05:00:29.470Z,17.49
2018-05-13T05:01:29.479Z,17.49
2018-05-13T05:02:29.509Z,17.58
2018-05-13T05:03:29.513Z,17.58
2018-05-13T05:04:29.550Z,17.62
2018-05-13T05:05:29.549Z,17.70
2018-05-13T05:06:29.564Z,17.68
2018-05-13T05:07:29.651Z,17.70
2018-05-13T05:08:29.600Z,17.66
2018-05-13T05:09:29.617Z,17.68
2018-05-13T05:10:29.646Z,17.78
2018-05-13T05:11:29.654Z,17.75
2018-05-13T05:12:29.670Z,17.68
2018-05-13T05:13:29.691Z,17.78
2018-05-13T05:14:29.705Z,17.78
2018-05-13T05:15:29.727Z,17.70
2018-05-13T05:16:29.741Z,17.79
2018-05-13T05:17:29.770Z,17.86
2018-05-13T05:18:29.777Z,17.92
2018-05-13T05:19:29.798Z,17.82
2018-05-13T05:20:29.819Z,17.71
2018-05-13T05:21:29.830Z,17.81
2018-05-13T05:22:29.847Z,17.79
2018-05-13T05:23:29.900Z,17.71
2018-05-13T05:24:29.888Z,17.71
2018-05-13T05:25:29.895Z,17.66
2018-05-13T05:26:29.915Z,17.75
2018-05-13T05:27:29.932Z,17.78
2018-05-13T05:28:29.950Z,17.79
2018-05-13T05:29:29.966Z,17.90
2018-05-13T05:30:29.990Z,17.89
2018-05-13T05:31:30.005Z,17.89
2018-05-13T05:32:30.037Z,17.97
2018-05-13T05:33:30.036Z,17.99
2018-05-13T05:34:30.057Z,17.90
2018-05-13T05:35:30.072Z,17.96
2018-05-13T05:36:30.090Z,18.02
2018-05-13T05:37:30.112Z,18.07
2018-05-13T05:38:30.133Z,18.11
2018-05-13T05:39:30.140Z,18.20
2018-05-13T05:40:30.160Z,18.11
2018-05-13T05:41:30.177Z,18.12
2018-05-13T05:42:30.203Z,18.18
2018-05-13T05:43:30.212Z,18.25
2018-05-13T05:44:30.245Z,18.27
2018-05-13T05:45:30.248Z,18.37
2018-05-13T05:46:30.266Z,18.27
2018-05-13T05:47:30.284Z,18.27
2018-05-13T05:48:30.306Z,18.30
2018-05-13T05:49:30.332Z,18.39
2018-05-13T05:50:30.345Z,18.30
2018-05-13T05:51:30.358Z,18.36
2018-05-13T05:52:30.448Z,18.48
2018-05-13T05:53:30.394Z,18.45
2018-05-13T05:54:30.412Z,18.42
2018-05-13T05:55:30.432Z,18.45
2018-05-13T05:56:30.447Z,18.42
2018-05-13T05:57:30.469Z,18.57
2018-05-13T05:58:30.482Z,18.50
2018-05-13T05:59:30.507Z,18.45
2018-05-13T06:00:30.522Z,18.44
2018-05-13T06:01:30.541Z,18.44
2018-05-13T06:02:30.559Z,18.42
2018-05-13T06:03:30.577Z,18.50
2018-05-13T06:04:30.606Z,18.41
2018-05-13T06:05:30.615Z,18.54
2018-05-13T06:06:30.627Z,18.51
2018-05-13T06:07:30.645Z,18.55
2018-05-13T06:08:30.661Z,18.55
2018-05-13T06:09:30.683Z,18.57
2018-05-13T06:10:30.700Z,18.62
2018-05-13T06:11:30.744Z,18.58
2018-05-13T06:12:30.734Z,18.60
2018-05-13T06:13:30.757Z,18.76
2018-05-13T06:14:30.775Z,18.62
2018-05-13T06:15:30.796Z,18.76
2018-05-13T06:16:30.810Z,18.75
2018-05-13T06:17:30.829Z,18.78
2018-05-13T06:18:30.850Z,18.75
2018-05-13T06:19:30.956Z,18.87
2018-05-13T06:20:30.881Z,18.87
2018-05-13T06:21:30.911Z,18.84
2018-05-13T06:22:30.921Z,18.76
2018-05-13T06:23:30.940Z,18.76
2018-05-13T06:24:30.957Z,18.78
2018-05-13T06:25:30.974Z,18.80
2018-05-13T06:26:30.993Z,18.84
2018-05-13T06:27:31.008Z,18.87
2018-05-13T06:28:31.029Z,18.88
2018-05-13T06:29:31.042Z,18.94
2018-05-13T06:30:31.063Z,18.92
2018-05-13T06:31:31.184Z,18.91
2018-05-13T06:32:31.113Z,18.85
2018-05-13T06:33:31.115Z,18.95
2018-05-13T06:34:31.142Z,18.87
2018-05-13T06:35:31.165Z,18.88
2018-05-13T06:36:31.223Z,18.95
2018-05-13T06:37:31.225Z,19.06
2018-05-13T06:38:31.251Z,19.04
2018-05-13T06:39:31.307Z,18.87
2018-05-13T06:40:31.254Z,18.92
2018-05-13T06:41:31.261Z,19.02
2018-05-13T06:42:31.287Z,19.06
2018-05-13T06:43:31.299Z,19.00
2018-05-13T06:44:31.323Z,18.91
2018-05-13T06:45:31.337Z,18.92
2018-05-13T06:46:31.355Z,18.88
2018-05-13T06:47:31.374Z,18.90
2018-05-13T06:48:31.396Z,18.95
2018-05-13T06:49:31.410Z,18.92
2018-05-13T06:50:31.441Z,19.07
2018-05-13T06:51:31.477Z,19.10
2018-05-13T06:52:31.463Z,19.00
2018-05-13T06:54:31.499Z,19.14
2018-05-13T06:55:31.516Z,19.11
2018-05-13T06:56:31.534Z,19.13
2018-05-13T06:57:31.553Z,19.08
2018-05-13T06:58:31.575Z,19.10
2018-05-13T06:59:31.590Z,19.22
2018-05-13T07:00:31.610Z,19.14
2018-05-13T07:01:31.625Z,19.21
2018-05-13T07:02:31.644Z,19.26
2018-05-13T07:03:32.044Z,19.21
2018-05-13T07:04:32.002Z,19.22
2018-05-13T07:05:32.026Z,19.21
2018-05-13T07:06:31.718Z,19.28
2018-05-13T07:07:31.749Z,19.37
2018-05-13T07:08:31.748Z,19.31
2018-05-13T07:09:31.764Z,19.25
2018-05-13T07:10:31.783Z,19.31
2018-05-13T07:11:31.803Z,19.28
2018-05-13T07:12:31.838Z,19.37
2018-05-13T07:13:31.841Z,19.41
2018-05-13T07:14:31.862Z,19.40
2018-05-13T07:15:31.873Z,19.47
2018-05-13T07:16:31.986Z,19.46
2018-05-13T07:17:31.914Z,19.48
2018-05-13T07:18:31.929Z,19.48
2018-05-13T07:19:31.948Z,19.59
2018-05-13T07:20:31.970Z,19.54
2018-05-13T07:21:31.984Z,19.59
2018-05-13T07:22:32.005Z,19.66
2018-05-13T07:23:32.022Z,19.58
2018-05-13T07:24:32.039Z,19.61
2018-05-13T07:25:32.060Z,19.65
2018-05-13T07:26:32.077Z,19.66
2018-05-13T07:27:32.095Z,19.78
2018-05-13T07:28:32.117Z,19.78
2018-05-13T07:29:32.130Z,19.84
2018-05-13T07:30:32.148Z,19.81
2018-05-13T07:31:32.175Z,19.68
2018-05-13T07:32:32.186Z,19.63
2018-05-13T07:33:32.203Z,19.65
2018-05-13T07:34:32.224Z,19.68
2018-05-13T07:35:32.242Z,19.68
2018-05-13T07:36:32.262Z,19.62
2018-05-13T07:37:32.277Z,19.63
2018-05-13T07:38:32.297Z,19.73
2018-05-13T07:39:32.314Z,19.66
2018-05-13T07:40:32.334Z,19.69
2018-05-13T07:41:32.354Z,19.80
2018-05-13T07:42:32.370Z,19.80
2018-05-13T07:43:32.430Z,19.81
2018-05-13T07:44:32.413Z,19.83
2018-05-13T07:45:32.484Z,19.91
2018-05-13T07:46:32.441Z,19.99
2018-05-13T07:47:32.466Z,19.98
2018-05-13T07:48:32.481Z,19.98
2018-05-13T07:49:32.500Z,20.10
2018-05-13T07:50:32.518Z,20.06
2018-05-13T07:51:32.533Z,20.02
2018-05-13T07:52:32.554Z,20.14
2018-05-13T07:53:32.576Z,20.13
2018-05-13T07:54:32.589Z,20.14
2018-05-13T07:55:32.616Z,20.14
2018-05-13T07:56:32.626Z,20.17
2018-05-13T07:57:32.644Z,20.10
2018-05-13T07:58:32.667Z,20.21
2018-05-13T07:59:32.686Z,20.14
2018-05-13T08:00:32.771Z,20.16
2018-05-13T08:01:32.717Z,20.16
2018-05-13T08:02:32.741Z,20.10
2018-05-13T08:03:32.755Z,20.06
2018-05-13T08:04:32.777Z,20.10
2018-05-13T08:05:32.793Z,20.02
2018-05-13T08:06:32.814Z,20.11
2018-05-13T08:07:32.833Z,20.29
2018-05-13T08:08:32.853Z,20.39
2018-05-13T08:09:32.869Z,20.39
2018-05-13T08:10:32.885Z,20.57
2018-05-13T08:11:32.906Z,20.57
2018-05-13T08:12:32.925Z,20.54
2018-05-13T08:13:32.949Z,20.57
2018-05-13T08:14:32.972Z,20.58
2018-05-13T08:15:32.981Z,20.74
2018-05-13T08:16:33.004Z,20.69
2018-05-13T08:17:33.018Z,20.66
2018-05-13T08:18:33.037Z,20.76
2018-05-13T08:19:33.053Z,20.69
2018-05-13T08:20:33.141Z,20.74
2018-05-13T08:21:33.100Z,20.69
2018-05-13T08:22:33.112Z,20.58
2018-05-13T08:23:33.130Z,20.51
2018-05-13T08:24:33.157Z,20.54
2018-05-13T08:25:33.165Z,20.50
2018-05-13T08:26:33.188Z,20.52
2018-05-13T08:27:33.208Z,20.69
2018-05-13T08:28:33.224Z,20.70
2018-05-13T08:29:33.255Z,20.66
2018-05-13T08:30:33.261Z,20.66
2018-05-13T08:31:33.290Z,20.69
2018-05-13T08:32:33.312Z,20.85
2018-05-13T08:33:33.318Z,20.85
2018-05-13T08:34:33.342Z,20.97
2018-05-13T08:35:33.365Z,21.03
2018-05-13T08:36:33.384Z,20.84
2018-05-13T08:37:33.394Z,20.85
2018-05-13T08:38:33.410Z,20.89
2018-05-13T08:39:33.436Z,20.99
2018-05-13T08:40:33.452Z,21.10
2018-05-13T08:41:33.469Z,21.31
2018-05-13T08:42:33.491Z,21.25
2018-05-13T08:43:33.511Z,21.44
2018-05-13T08:44:33.530Z,21.44
2018-05-13T08:45:33.545Z,21.52
2018-05-13T08:46:33.564Z,21.42
2018-05-13T08:47:33.587Z,21.25
2018-05-13T08:48:33.621Z,21.10
2018-05-13T08:49:33.630Z,21.06
2018-05-13T08:50:33.641Z,21.09
2018-05-13T08:51:33.661Z,21.09
2018-05-13T08:52:33.691Z,20.92
2018-05-13T08:53:33.699Z,21.04
2018-05-13T08:54:33.714Z,21.04
2018-05-13T08:55:33.739Z,21.06
2018-05-13T08:56:33.755Z,21.19
2018-05-13T08:57:33.779Z,21.25
2018-05-13T08:58:33.793Z,21.35
2018-05-13T08:59:33.825Z,21.40
2018-05-13T09:00:33.833Z,21.47
2018-05-13T09:01:33.851Z,21.61
2018-05-13T09:02:33.872Z,21.59
2018-05-13T09:03:33.893Z,21.64
2018-05-13T09:04:33.912Z,21.54
2018-05-13T09:05:33.930Z,21.53
2018-05-13T09:06:33.951Z,21.53
2018-05-13T09:07:33.964Z,21.47
2018-05-13T09:08:34.147Z,21.38
2018-05-13T09:09:34.008Z,21.44
2018-05-13T09:10:34.022Z,21.32
2018-05-13T09:11:34.041Z,21.31
2018-05-13T09:12:34.064Z,21.37
2018-05-13T09:13:34.078Z,21.44
2018-05-13T09:14:34.108Z,21.46
2018-05-13T09:15:34.116Z,21.46
2018-05-13T09:16:34.140Z,21.53
2018-05-13T09:17:34.171Z,21.62
2018-05-13T09:18:34.180Z,21.64
2018-05-13T09:19:34.194Z,21.62
2018-05-13T09:20:34.276Z,21.50
2018-05-13T09:21:34.232Z,21.64
2018-05-13T09:22:34.253Z,21.49
2018-05-13T09:23:34.268Z,21.62
2018-05-13T09:24:34.285Z,21.62
2018-05-13T09:25:34.308Z,21.67
2018-05-13T09:26:34.413Z,21.65
2018-05-13T09:27:34.345Z,21.53
2018-05-13T09:28:34.371Z,21.50
2018-05-13T09:29:34.383Z,21.53
2018-05-13T09:30:34.421Z,21.46
2018-05-13T09:31:34.418Z,21.65
2018-05-13T09:32:34.448Z,21.68
2018-05-13T09:33:34.489Z,21.68
2018-05-13T09:34:34.480Z,21.77
2018-05-13T09:35:34.505Z,21.80
2018-05-13T09:36:34.618Z,21.90
2018-05-13T09:37:34.623Z,22.05
2018-05-13T09:38:34.562Z,22.07
2018-05-13T09:39:34.641Z,22.27
2018-05-13T09:40:34.596Z,22.35
2018-05-13T09:41:34.615Z,22.52
2018-05-13T09:42:34.632Z,22.57
2018-05-13T09:43:34.651Z,22.51
2018-05-13T09:44:34.679Z,22.39
2018-05-13T09:45:34.694Z,22.35
2018-05-13T09:46:34.793Z,22.43
2018-05-13T09:47:34.734Z,22.51
2018-05-13T09:48:34.749Z,22.51
2018-05-13T09:49:34.771Z,22.60
2018-05-13T09:50:34.808Z,22.73
2018-05-13T09:51:34.812Z,22.88
2018-05-13T09:52:34.835Z,22.83
2018-05-13T09:53:34.844Z,22.86
2018-05-13T09:54:34.865Z,22.82
2018-05-13T09:55:34.885Z,22.82
2018-05-13T09:56:34.907Z,22.79
2018-05-13T09:57:34.926Z,22.70
2018-05-13T09:58:34.943Z,22.76
2018-05-13T09:59:34.964Z,22.79
2018-05-13T10:00:34.986Z,22.83
2018-05-13T10:01:35.003Z,23.02
2018-05-13T10:02:35.026Z,23.17
2018-05-13T10:03:35.058Z,23.20
2018-05-13T10:04:35.067Z,23.17
2018-05-13T10:05:35.081Z,23.25
2018-05-13T10:06:35.103Z,23.27
2018-05-13T10:07:35.121Z,23.46
2018-05-13T10:08:35.141Z,23.55
2018-05-13T10:09:35.255Z,23.53
2018-05-13T10:10:35.254Z,23.55
2018-05-13T10:11:35.207Z,23.53
2018-05-13T10:12:35.224Z,23.51
2018-05-13T10:13:35.241Z,23.53
2018-05-13T10:14:35.317Z,23.54
2018-05-13T10:15:35.283Z,23.55
2018-05-13T10:16:35.309Z,23.54
2018-05-13T10:17:35.341Z,23.55
2018-05-13T10:18:35.344Z,23.46
2018-05-13T10:19:35.414Z,23.51
2018-05-13T10:20:35.418Z,23.36
2018-05-13T10:21:35.403Z,23.27
2018-05-13T10:22:35.427Z,23.33
2018-05-13T10:23:35.451Z,23.46
2018-05-13T10:24:35.470Z,23.60
2018-05-13T10:25:35.484Z,23.73
2018-05-13T10:26:35.505Z,23.83
2018-05-13T10:27:35.527Z,23.72
2018-05-13T10:28:35.548Z,23.84
2018-05-13T10:29:35.567Z,23.85
2018-05-13T10:30:35.591Z,23.93
2018-05-13T10:31:35.607Z,23.94
2018-05-13T10:32:35.627Z,24.08
2018-05-13T10:33:35.648Z,24.05
2018-05-13T10:34:35.720Z,24.02
2018-05-13T10:35:35.699Z,24.27
2018-05-13T10:36:35.711Z,24.31
2018-05-13T10:37:35.729Z,24.28
2018-05-13T10:38:35.754Z,24.24
2018-05-13T10:39:35.773Z,24.09
2018-05-13T10:40:35.799Z,24.02
2018-05-13T10:41:35.817Z,23.98
2018-05-13T10:42:35.837Z,24.09
2018-05-13T10:43:35.860Z,24.34
2018-05-13T10:44:35.883Z,24.37
2018-05-13T10:45:35.903Z,24.47
2018-05-13T10:46:35.917Z,24.55
2018-05-13T10:47:35.940Z,24.52
2018-05-13T10:48:36.013Z,24.52
2018-05-13T10:49:35.983Z,24.52
2018-05-13T10:50:36.001Z,24.53
2018-05-13T10:51:36.030Z,24.68
2018-05-13T10:52:36.048Z,24.84
2018-05-13T10:53:36.067Z,24.83
2018-05-13T10:54:36.084Z,24.90
2018-05-13T10:55:36.105Z,24.90
2018-05-13T10:56:36.124Z,24.93
2018-05-13T10:57:36.152Z,24.81
2018-05-13T10:58:36.179Z,24.84
2018-05-13T10:59:36.191Z,24.76
2018-05-13T11:00:36.208Z,24.67
2018-05-13T11:01:36.229Z,24.55
2018-05-13T11:02:36.266Z,24.49
2018-05-13T11:03:36.272Z,24.53
2018-05-13T11:04:36.301Z,24.65
2018-05-13T11:05:36.312Z,24.85
2018-05-13T11:06:36.335Z,24.95
2018-05-13T11:07:36.357Z,25.08
2018-05-13T11:08:36.425Z,25.20
2018-05-13T11:09:36.399Z,25.06
2018-05-13T11:10:36.420Z,25.28
2018-05-13T11:11:36.458Z,25.36
2018-05-13T11:12:36.462Z,25.43
2018-05-13T11:13:36.481Z,25.57
2018-05-13T11:14:36.512Z,25.45
2018-05-13T11:15:36.526Z,25.57
2018-05-13T11:16:36.549Z,25.42
2018-05-13T11:17:36.570Z,25.18
2018-05-13T11:18:36.599Z,25.10
2018-05-13T11:19:36.620Z,25.08
2018-05-13T11:20:36.675Z,25.18
2018-05-13T11:21:36.660Z,25.27
2018-05-13T11:22:36.687Z,25.42
2018-05-13T11:23:36.699Z,25.47
2018-05-13T11:24:36.720Z,25.64
2018-05-13T11:25:36.748Z,25.76
2018-05-13T11:26:36.764Z,25.67
2018-05-13T11:27:36.886Z,25.73
2018-05-13T11:28:36.808Z,25.72
2018-05-13T11:29:36.828Z,25.57
2018-05-13T11:30:36.855Z,25.52
2018-05-13T11:31:36.877Z,25.60
2018-05-13T11:32:36.896Z,25.25
2018-05-13T11:33:36.925Z,25.32
2018-05-13T11:34:36.940Z,25.42
2018-05-13T11:35:36.961Z,25.46
2018-05-13T11:36:36.983Z,25.60
2018-05-13T11:37:37.005Z,25.70
2018-05-13T11:38:37.023Z,25.69
2018-05-13T11:39:37.050Z,25.80
2018-05-13T11:40:37.079Z,25.75
2018-05-13T11:41:37.094Z,25.64
2018-05-13T11:42:37.121Z,25.52
2018-05-13T11:43:37.136Z,25.54
2018-05-13T11:44:37.162Z,25.65
2018-05-13T11:45:37.188Z,25.43
2018-05-13T11:46:37.270Z,25.58
2018-05-13T11:47:37.223Z,25.61
2018-05-13T11:48:37.244Z,25.64
2018-05-13T11:49:37.269Z,25.91
2018-05-13T11:50:37.292Z,25.98
2018-05-13T11:51:37.312Z,26.23
2018-05-13T11:52:37.333Z,26.40
2018-05-13T11:53:37.376Z,26.43
2018-05-13T11:54:37.382Z,26.45
2018-05-13T11:55:37.402Z,26.62
2018-05-13T11:56:37.421Z,26.62
2018-05-13T11:57:37.442Z,26.72
2018-05-13T11:58:37.468Z,26.84
2018-05-13T11:59:37.490Z,26.82
2018-05-13T12:00:37.512Z,26.88
2018-05-13T12:01:37.534Z,26.85
2018-05-13T12:02:37.555Z,26.88
2018-05-13T12:03:37.579Z,26.95
2018-05-13T12:04:37.606Z,27.07
2018-05-13T12:05:37.624Z,26.95
2018-05-13T12:06:37.649Z,27.04
2018-05-13T12:07:37.673Z,26.97
2018-05-13T12:08:37.697Z,26.95
2018-05-13T12:09:37.731Z,26.72
2018-05-13T12:10:37.748Z,26.47
2018-05-13T12:11:37.769Z,26.45
2018-05-13T12:12:37.786Z,26.29
2018-05-13T12:13:37.816Z,26.17
2018-05-13T12:14:37.848Z,26.01
2018-05-13T12:15:37.887Z,26.05
2018-05-13T12:16:37.873Z,25.73
2018-05-13T12:17:37.902Z,25.87
2018-05-13T12:18:37.916Z,25.80
2018-05-13T12:19:37.943Z,25.51
2018-05-13T12:20:37.968Z,25.57
2018-05-13T12:21:37.987Z,25.64
2018-05-13T12:22:38.011Z,25.67
2018-05-13T12:23:38.032Z,25.79
2018-05-13T12:24:38.056Z,25.94
2018-05-13T12:25:38.079Z,25.97
2018-05-13T12:26:38.102Z,25.75
2018-05-13T12:27:38.142Z,25.79
2018-05-13T12:28:38.149Z,25.75
2018-05-13T12:29:38.172Z,25.79
2018-05-13T12:30:38.187Z,25.17
2018-05-13T12:31:38.210Z,24.60
2018-05-13T12:32:38.235Z,24.43
2018-05-13T12:33:38.256Z,24.43
2018-05-13T12:34:38.292Z,24.24
2018-05-13T12:35:38.300Z,24.08
2018-05-13T12:36:38.316Z,24.25
2018-05-13T12:37:38.332Z,24.58
2018-05-13T12:38:38.355Z,24.32
2018-05-13T12:39:38.378Z,24.09
2018-05-13T12:40:38.402Z,24.15
2018-05-13T12:41:38.423Z,24.25
2018-05-13T12:42:38.441Z,24.39
2018-05-13T12:43:38.460Z,24.42
2018-05-13T12:44:38.484Z,24.39
2018-05-13T12:45:38.502Z,24.52
2018-05-13T12:46:38.526Z,24.62
2018-05-13T12:47:38.552Z,24.90
2018-05-13T12:48:38.570Z,24.96
2018-05-13T12:49:38.599Z,24.69
2018-05-13T12:50:38.643Z,24.61
2018-05-13T12:51:38.638Z,24.68
2018-05-13T12:52:38.656Z,24.50
2018-05-13T12:53:38.680Z,24.57
2018-05-13T12:54:38.705Z,24.55